Time;durP1;ratioP1;P1;durP2;ratioP2;P2;SDS_P1;SDS_P2;PMS_P1;PMS_P2;Temp;Humidity;BMP_temperature;BMP_pressure;BME280_temperature;BME280_humidity;BME280_pressure;Samples;Min_cycle;Max_cycle;Signal;HPM_P1;HPM_P2
2022/01/29 10:56:03;;;;;;;12.43;7.57;;;8.70;99.90;;;;;;5532871;23;20334;-49
2022/01/29 10:58:29;;;;;;;12.60;7.00;;;8.70;99.90;;;;;;4913966;29;20483;-49
2022/01/29 11:01:17;;;;;;;15.00;8.03;;;8.70;99.90;;;;;;4913919;29;20989;-49
2022/01/29 11:03:44;;;;;;;14.33;8.20;;;8.70;99.90;;;;;;4914099;29;20428;-49
2022/01/29 11:06:12;;;;;;;13.90;7.10;;;8.70;99.90;;;;;;4906809;29;20459;-49
2022/01/29 11:08:40;;;;;;;13.10;7.80;;;8.70;99.90;;;;;;4913942;29;20473;-49
2022/01/29 11:11:07;;;;;;;14.20;8.90;;;8.70;99.90;;;;;;4913573;29;20434;-49
2022/01/29 11:13:35;;;;;;;14.47;8.00;;;8.70;99.90;;;;;;4914006;29;20480;-49
2022/01/29 11:16:02;;;;;;;12.17;8.27;;;8.70;99.90;;;;;;4906824;29;20466;-49
2022/01/29 11:18:28;;;;;;;15.03;8.70;;;8.70;99.90;;;;;;4905774;29;20468;-49
2022/01/29 11:20:55;;;;;;;17.23;9.03;;;8.80;99.90;;;;;;4903341;29;21260;-50
2022/01/29 11:23:22;;;;;;;18.73;8.20;;;8.80;99.90;;;;;;4905421;29;20196;-50
2022/01/29 11:25:54;;;;;;;15.67;9.43;;;8.80;99.90;;;;;;4896737;29;20448;-49
2022/01/29 11:28:22;;;;;;;16.90;8.30;;;8.70;99.90;;;;;;4896236;29;20555;-50
2022/01/29 11:31:10;;;;;;;16.70;8.60;;;8.70;99.90;;;;;;4896368;29;20482;-49
2022/01/29 11:33:58;;;;;;;16.13;10.63;;;8.80;99.90;;;;;;4896169;29;20451;-49
2022/01/29 11:36:48;;;;;;;19.13;10.03;;;8.80;99.90;;;;;;4898598;29;21099;-50
2022/01/29 11:39:28;;;;;;;20.10;9.43;;;8.80;99.90;;;;;;4909173;29;20435;-50
2022/01/29 11:42:13;;;;;;;17.10;9.50;;;8.80;99.90;;;;;;4913413;29;20442;-49
2022/01/29 11:44:43;;;;;;;15.40;9.37;;;8.90;99.90;;;;;;4909223;29;20448;-50
2022/01/29 11:47:25;;;;;;;21.57;10.20;;;8.90;99.90;;;;;;4900728;29;20574;-50
2022/01/29 11:50:19;;;;;;;20.70;9.43;;;8.90;99.90;;;;;;4903032;29;20551;-50
2022/01/29 11:52:54;;;;;;;17.43;9.63;;;8.90;99.90;;;;;;4903595;29;20455;-50
2022/01/29 11:55:36;;;;;;;17.23;9.77;;;9.00;99.90;;;;;;4914385;29;20458;-49
2022/01/29 11:58:17;;;;;;;16.00;9.70;;;9.00;99.90;;;;;;4899000;29;21059;-49
2022/01/29 12:00:45;;;;;;;14.93;8.47;;;9.00;99.90;;;;;;4902957;29;20435;-49
2022/01/29 12:03:35;;;;;;;15.13;8.80;;;9.00;99.90;;;;;;4916835;29;20423;-50
2022/01/29 12:09:06;;;;;;;18.57;8.63;;;9.10;99.90;;;;;;4916785;29;20502;-49
2022/01/29 12:11:43;;;;;;;12.93;8.57;;;9.10;99.90;;;;;;4910490;29;20470;-49
2022/01/29 12:14:14;;;;;;;16.53;8.20;;;9.10;99.90;;;;;;4916010;29;20940;-49
2022/01/29 12:16:56;;;;;;;19.00;8.70;;;9.10;99.90;;;;;;4913156;29;21213;-50
2022/01/29 12:19:44;;;;;;;19.30;7.60;;;9.20;99.90;;;;;;4914379;29;20487;-49
2022/01/29 12:22:23;;;;;;;9.73;7.57;;;9.20;99.90;;;;;;4916481;29;20442;-49
2022/01/29 12:25:01;;;;;;;15.23;7.13;;;9.20;99.90;;;;;;4916126;29;20399;-49
2022/01/29 12:27:48;;;;;;;11.77;7.30;;;9.20;99.90;;;;;;4915934;29;21019;-49
2022/01/29 12:30:19;;;;;;;19.80;8.23;;;9.20;99.90;;;;;;4906956;29;20968;-49
2022/01/29 12:33:02;;;;;;;16.87;7.30;;;9.30;99.90;;;;;;4916051;29;20442;-49
2022/01/29 12:35:54;;;;;;;13.10;7.57;;;9.30;99.90;;;;;;4916624;29;20415;-49
2022/01/29 12:38:49;;;;;;;15.90;7.80;;;9.30;99.90;;;;;;4915572;29;20415;-49
2022/01/29 12:41:33;;;;;;;11.00;6.87;;;9.30;99.90;;;;;;4904384;29;20529;-49
2022/01/29 12:44:04;;;;;;;12.53;7.13;;;9.20;99.90;;;;;;4909652;29;20455;-50
2022/01/29 12:46:30;;;;;;;11.40;6.50;;;9.30;99.90;;;;;;4911945;29;20455;-50
2022/01/29 12:49:06;;;;;;;9.73;7.33;;;9.30;99.90;;;;;;4916789;29;20474;-49
2022/01/29 12:51:35;;;;;;;20.33;6.77;;;9.30;99.90;;;;;;4917002;29;20464;-50
2022/01/29 12:54:05;;;;;;;8.23;6.33;;;9.30;99.90;;;;;;4915239;29;20438;-50
2022/01/29 12:56:32;;;;;;;9.80;6.37;;;9.40;99.90;;;;;;4914795;29;20962;-50
2022/01/29 12:58:59;;;;;;;8.90;6.13;;;9.40;99.90;;;;;;4911179;29;20432;-50
2022/01/29 13:01:25;;;;;;;9.00;6.53;;;9.40;99.90;;;;;;4914839;29;20439;-50
2022/01/29 13:04:00;;;;;;;9.30;5.80;;;9.40;99.90;;;;;;4914587;29;20478;-49
2022/01/29 13:06:25;;;;;;;15.30;5.67;;;9.50;99.90;;;;;;4914799;29;21167;-49
2022/01/29 13:08:51;;;;;;;13.10;6.33;;;9.50;99.90;;;;;;4913250;29;20475;-49
2022/01/29 13:11:20;;;;;;;18.13;5.33;;;9.50;99.90;;;;;;4907847;29;20199;-49
2022/01/29 13:13:46;;;;;;;9.67;5.07;;;9.60;99.90;;;;;;4911907;29;20267;-49
2022/01/29 13:16:12;;;;;;;8.13;5.27;;;9.60;99.90;;;;;;4911106;29;20440;-50
2022/01/29 13:18:37;;;;;;;10.20;4.83;;;9.60;99.90;;;;;;4909272;29;20246;-50
2022/01/29 13:21:03;;;;;;;7.07;4.47;;;9.70;99.90;;;;;;4909918;29;20195;-49
2022/01/29 13:23:33;;;;;;;6.00;4.73;;;9.70;99.90;;;;;;4910305;29;20195;-49
2022/01/29 13:25:59;;;;;;;9.97;4.13;;;9.70;99.90;;;;;;4906860;29;20206;-50
2022/01/29 13:28:28;;;;;;;10.80;4.23;;;9.80;99.90;;;;;;4904897;29;20876;-50
2022/01/29 13:31:04;;;;;;;8.30;4.50;;;9.80;99.90;;;;;;4909628;29;20760;-50
2022/01/29 13:33:33;;;;;;;13.67;3.87;;;9.80;99.90;;;;;;4909605;29;20438;-50
2022/01/29 13:35:59;;;;;;;4.43;3.97;;;9.90;99.90;;;;;;4911900;29;20812;-50
2022/01/29 13:38:33;;;;;;;14.40;4.17;;;9.90;90.60;;;;;;4910971;29;20435;-50
2022/01/29 13:41:01;;;;;;;5.27;3.20;;;9.90;91.90;;;;;;4911838;29;20423;-49
2022/01/29 13:43:33;;;;;;;8.07;3.50;;;9.90;73.40;;;;;;4909779;29;20455;-50
2022/01/29 13:46:00;;;;;;;9.50;3.50;;;10.00;40.50;;;;;;4910170;29;20443;-50
2022/01/29 13:48:39;;;;;;;4.90;2.90;;;10.00;26.50;;;;;;4910981;29;20599;-49
2022/01/29 13:51:04;;;;;;;7.90;3.10;;;10.00;21.20;;;;;;4909676;29;20470;-50
2022/01/29 13:53:39;;;;;;;9.03;3.00;;;10.00;13.60;;;;;;4910367;29;21103;-50
2022/01/29 13:56:10;;;;;;;15.57;4.10;;;10.00;20.70;;;;;;4910330;29;20230;-50
2022/01/29 13:58:47;;;;;;;6.43;3.03;;;10.00;13.40;;;;;;4909026;29;20791;-49
2022/01/29 14:01:13;;;;;;;6.50;3.03;;;10.00;22.30;;;;;;4910471;29;20427;-50
2022/01/29 14:03:50;;;;;;;10.70;3.43;;;10.00;50.80;;;;;;4911035;29;20439;-50
2022/01/29 14:06:27;;;;;;;5.90;2.80;;;10.00;90.20;;;;;;4905832;29;20462;-49
2022/01/29 14:09:22;;;;;;;9.23;3.30;;;10.00;91.10;;;;;;4909057;29;20463;-50
2022/01/29 14:11:55;;;;;;;8.20;3.50;;;9.90;99.90;;;;;;4908559;29;20590;-49
2022/01/29 14:14:22;;;;;;;15.67;3.33;;;9.90;99.90;;;;;;4905633;29;20451;-50
2022/01/29 14:16:48;;;;;;;6.53;3.37;;;9.90;99.90;;;;;;4910669;29;20776;-50
2022/01/29 14:19:18;;;;;;;11.67;3.30;;;10.00;94.60;;;;;;4909760;29;20438;-50
2022/01/29 14:21:45;;;;;;;8.80;2.80;;;10.00;87.00;;;;;;4907180;29;20537;-52
2022/01/29 14:24:10;;;;;;;8.67;2.93;;;10.10;62.30;;;;;;4909752;29;21120;-50
2022/01/29 14:26:37;;;;;;;4.60;2.90;;;10.10;44.50;;;;;;4909827;29;20450;-49
2022/01/29 14:29:02;;;;;;;10.27;3.00;;;10.10;40.80;;;;;;4908723;29;20199;-50
2022/01/29 14:31:28;;;;;;;9.30;3.20;;;10.10;33.60;;;;;;4907917;29;20450;-50
2022/01/29 14:33:54;;;;;;;4.17;2.73;;;10.10;27.10;;;;;;4905986;29;20220;-50
2022/01/29 14:36:19;;;;;;;8.10;3.27;;;10.20;13.80;;;;;;4909689;29;20187;-50
2022/01/29 14:38:44;;;;;;;9.13;3.77;;;10.20;17.70;;;;;;4909249;29;21022;-49
2022/01/29 14:41:10;;;;;;;7.67;3.13;;;10.20;10.80;;;;;;4909363;29;20199;-49
2022/01/29 14:43:36;;;;;;;9.30;2.97;;;10.30;17.00;;;;;;4909586;29;20199;-50
2022/01/29 14:46:01;;;;;;;10.43;3.00;;;10.30;13.00;;;;;;4910212;29;20182;-49
2022/01/29 14:48:27;;;;;;;8.37;3.60;;;10.30;4.60;;;;;;4907028;29;20250;-49
2022/01/29 14:50:53;;;;;;;14.20;3.30;;;10.30;16.00;;;;;;4911888;29;20187;-50
2022/01/29 14:53:22;;;;;;;4.90;2.80;;;10.30;1.00;;;;;;4912293;29;20341;-49
2022/01/29 14:55:48;;;;;;;7.40;3.30;;;10.40;1.00;;;;;;4911919;29;20238;-49
2022/01/29 14:58:13;;;;;;;10.77;3.00;;;10.40;1.00;;;;;;4912267;29;20575;-49
2022/01/29 15:00:40;;;;;;;10.23;2.57;;;10.40;1.00;;;;;;4912035;29;20517;-50
2022/01/29 15:03:06;;;;;;;9.60;3.07;;;10.40;7.40;;;;;;4911377;29;20194;-50
2022/01/29 15:05:31;;;;;;;7.67;2.70;;;10.40;18.30;;;;;;4912073;29;20443;-49
2022/01/29 15:07:57;;;;;;;9.10;2.83;;;10.40;1.00;;;;;;4913067;29;20223;-49
2022/01/29 15:10:24;;;;;;;11.83;3.47;;;10.40;1.00;;;;;;4916124;29;20175;-50
2022/01/29 15:12:49;;;;;;;8.57;3.00;;;10.40;1.00;;;;;;4912390;29;20575;-49
2022/01/29 15:15:15;;;;;;;8.00;2.90;;;10.40;4.30;;;;;;4915687;29;20514;-50
2022/01/29 15:17:41;;;;;;;14.33;3.13;;;10.40;14.10;;;;;;4911512;29;20183;-49
2022/01/29 15:20:08;;;;;;;10.27;2.70;;;10.30;22.60;;;;;;4915256;29;20747;-49
2022/01/29 15:22:34;;;;;;;5.27;2.40;;;10.30;37.20;;;;;;4911629;29;20543;-50
2022/01/29 15:24:59;;;;;;;10.27;3.37;;;10.30;48.50;;;;;;4916574;29;20433;-50
2022/01/29 15:27:25;;;;;;;7.47;2.53;;;10.30;47.00;;;;;;4916390;29;20812;-50
2022/01/29 15:29:50;;;;;;;8.80;2.40;;;10.20;36.30;;;;;;4915868;29;20197;-50
2022/01/29 15:32:17;;;;;;;8.30;2.23;;;10.30;16.50;;;;;;4915629;29;20333;-49
2022/01/29 15:34:43;;;;;;;15.53;2.13;;;10.30;1.00;;;;;;4916009;29;20180;-50
2022/01/29 15:37:09;;;;;;;6.00;2.03;;;10.40;1.00;;;;;;4916156;29;20762;-49
2022/01/29 15:39:35;;;;;;;9.77;1.90;;;10.40;1.00;;;;;;4915493;29;20456;-49
2022/01/29 15:42:01;;;;;;;10.27;2.80;;;10.60;1.00;;;;;;4915323;29;20430;-49
2022/01/29 15:44:26;;;;;;;10.50;2.43;;;10.70;1.00;;;;;;4915549;29;20447;-49
2022/01/29 15:46:52;;;;;;;8.03;2.20;;;10.80;1.00;;;;;;4914549;29;20664;-49
2022/01/29 15:49:17;;;;;;;14.37;2.90;;;10.70;1.00;;;;;;4914924;29;20187;-49
2022/01/29 15:51:43;;;;;;;17.57;2.83;;;10.80;1.00;;;;;;4913384;29;20198;-49
2022/01/29 15:54:09;;;;;;;23.67;3.70;;;10.80;1.00;;;;;;4915302;29;20224;-50
2022/01/29 15:56:34;;;;;;;12.63;2.70;;;10.80;1.00;;;;;;4914691;29;20321;-49
2022/01/29 15:59:00;;;;;;;29.97;2.80;;;10.90;1.00;;;;;;4914783;29;20187;-51
2022/01/29 16:01:26;;;;;;;19.37;2.97;;;10.90;1.00;;;;;;4913544;29;20179;-49
2022/01/29 16:03:52;;;;;;;23.80;3.20;;;10.80;1.00;;;;;;4912205;29;20265;-50
2022/01/29 16:06:17;;;;;;;10.87;2.70;;;10.80;1.00;;;;;;4914674;29;20913;-49
2022/01/29 16:08:46;;;;;;;14.40;2.93;;;10.80;1.00;;;;;;4911091;29;20298;-50
2022/01/29 16:11:11;;;;;;;17.50;2.63;;;10.70;1.00;;;;;;4914563;29;20188;-49
2022/01/29 16:13:37;;;;;;;25.40;3.57;;;10.70;1.00;;;;;;4912154;29;20440;-50
2022/01/29 16:16:05;;;;;;;19.50;3.00;;;10.70;1.00;;;;;;4912358;29;20532;-49
2022/01/29 16:18:31;;;;;;;15.40;4.13;;;10.60;1.00;;;;;;4913629;29;20191;-49
2022/01/29 16:20:56;;;;;;;19.73;2.97;;;10.60;1.00;;;;;;4913540;29;20458;-49
2022/01/29 16:23:22;;;;;;;22.27;3.30;;;10.60;1.00;;;;;;4909822;29;20198;-50
2022/01/29 16:25:47;;;;;;;26.43;3.63;;;10.50;1.00;;;;;;4914433;29;20542;-50
2022/01/29 16:28:15;;;;;;;16.67;4.40;;;10.50;1.00;;;;;;4913937;29;20219;-49
2022/01/29 16:30:42;;;;;;;30.50;4.13;;;10.40;1.00;;;;;;4913396;29;20221;-50
2022/01/29 16:33:08;;;;;;;22.57;3.93;;;10.40;1.00;;;;;;4914349;29;20447;-50
2022/01/29 16:35:34;;;;;;;18.10;3.80;;;10.40;1.00;;;;;;4910446;29;20446;-49
2022/01/29 16:38:03;;;;;;;19.13;3.70;;;10.30;1.00;;;;;;4914372;29;20435;-66
2022/01/29 16:40:29;;;;;;;16.37;3.60;;;10.30;1.00;;;;;;4913033;29;20494;-49
2022/01/29 16:42:54;;;;;;;27.13;4.50;;;10.30;1.00;;;;;;4914351;29;20927;-49
2022/01/29 16:45:22;;;;;;;24.70;5.30;;;10.20;1.00;;;;;;4914297;29;20454;-50
2022/01/29 16:47:47;;;;;;;16.47;3.93;;;10.20;1.00;;;;;;4910676;29;20207;-49
2022/01/29 16:50:13;;;;;;;33.83;4.70;;;10.10;1.00;;;;;;4911458;29;20435;-50
2022/01/29 16:52:39;;;;;;;34.17;6.20;;;10.10;1.00;;;;;;4913924;29;20191;-49
2022/01/29 16:55:05;;;;;;;22.93;3.97;;;10.10;1.00;;;;;;4913786;29;20203;-49
2022/01/29 16:57:31;;;;;;;20.30;4.23;;;10.10;1.00;;;;;;4914331;29;20447;-50
2022/01/29 16:59:56;;;;;;;23.83;4.67;;;10.00;1.00;;;;;;4910861;29;20956;-49
2022/01/29 17:02:22;;;;;;;31.10;4.13;;;9.90;1.00;;;;;;4909657;29;20270;-49
2022/01/29 17:04:48;;;;;;;33.23;4.30;;;9.80;1.00;;;;;;4913440;29;20199;-49
2022/01/29 17:07:16;;;;;;;27.53;5.00;;;9.80;1.00;;;;;;4913439;29;20612;-50
2022/01/29 17:09:42;;;;;;;37.20;5.50;;;9.70;1.00;;;;;;4913980;29;20643;-49
2022/01/29 17:12:08;;;;;;;34.33;6.80;;;9.60;1.00;;;;;;4912579;29;20781;-50
2022/01/29 17:14:34;;;;;;;25.10;5.43;;;9.40;1.00;;;;;;4913152;29;20432;-50
2022/01/29 17:17:00;;;;;;;32.17;5.60;;;9.40;1.00;;;;;;4912949;29;20443;-49
2022/01/29 17:19:25;;;;;;;40.83;6.50;;;9.30;1.00;;;;;;4913538;29;20446;-49
2022/01/29 17:21:51;;;;;;;31.70;6.40;;;9.20;1.00;;;;;;4912017;29;20277;-49
2022/01/29 17:24:17;;;;;;;31.37;6.47;;;9.10;1.00;;;;;;4913643;29;20626;-49
2022/01/29 17:26:43;;;;;;;28.97;6.30;;;9.10;1.00;;;;;;4913469;29;20823;-49
2022/01/29 17:29:09;;;;;;;37.13;7.13;;;9.10;1.00;;;;;;4909652;29;20310;-49
2022/01/29 17:31:35;;;;;;;38.80;5.50;;;9.10;1.00;;;;;;4912340;29;20526;-49
2022/01/29 17:34:01;;;;;;;50.83;7.23;;;9.10;1.00;;;;;;4902039;29;20999;-49
2022/01/29 17:36:27;;;;;;;55.33;9.57;;;9.10;1.00;;;;;;4914181;29;20467;-49
2022/01/29 17:38:54;;;;;;;40.73;7.80;;;9.00;1.00;;;;;;4913081;29;20286;-49
2022/01/29 17:41:20;;;;;;;50.13;7.20;;;9.00;1.00;;;;;;4914249;29;20187;-49
2022/01/29 17:43:48;;;;;;;42.60;5.90;;;9.00;1.00;;;;;;4913865;29;20462;-50
2022/01/29 17:46:15;;;;;;;57.27;7.47;;;8.90;1.00;;;;;;4913418;29;20479;-50
2022/01/29 17:48:41;;;;;;;37.37;5.93;;;8.90;1.00;;;;;;4913837;29;20523;-49
2022/01/29 17:51:07;;;;;;;33.33;6.40;;;8.90;1.00;;;;;;4914097;29;20527;-49
2022/01/29 17:53:34;;;;;;;44.57;6.77;;;8.80;1.00;;;;;;4914103;29;20976;-49
2022/01/29 17:56:00;;;;;;;32.40;7.20;;;8.80;1.00;;;;;;4913684;29;20234;-49
2022/01/29 17:58:25;;;;;;;27.97;6.83;;;8.70;1.00;;;;;;4912567;29;20952;-50
2022/01/29 18:00:53;;;;;;;37.87;6.23;;;8.70;1.00;;;;;;4914126;29;20246;-49
2022/01/29 18:03:20;;;;;;;41.53;6.27;;;8.70;1.00;;;;;;4912493;29;20203;-49
2022/01/29 18:05:46;;;;;;;48.23;7.50;;;8.70;1.00;;;;;;4913185;29;21005;-49
2022/01/29 18:08:11;;;;;;;50.00;6.10;;;8.60;1.00;;;;;;4912700;29;20471;-51
2022/01/29 18:10:38;;;;;;;41.17;8.17;;;8.60;1.00;;;;;;4912992;29;20278;-50
2022/01/29 18:13:06;;;;;;;36.60;8.20;;;8.40;1.00;;;;;;4913606;29;20427;-50
2022/01/29 18:15:32;;;;;;;28.70;6.50;;;8.30;1.00;;;;;;4912858;29;20306;-49
2022/01/29 18:17:58;;;;;;;56.93;7.70;;;8.10;1.00;;;;;;4913349;29;20513;-49
2022/01/29 18:20:23;;;;;;;43.57;7.00;;;8.10;1.00;;;;;;4910824;29;20195;-50
2022/01/29 18:22:49;;;;;;;41.33;6.73;;;8.10;1.00;;;;;;4912769;29;20195;-49
2022/01/29 18:25:14;;;;;;;46.87;7.20;;;8.10;1.00;;;;;;4912286;29;20198;-49
2022/01/29 18:27:45;;;;;;;47.80;8.33;;;8.10;1.00;;;;;;4908127;29;20684;-50
2022/01/29 18:30:15;;;;;;;43.33;7.90;;;8.10;1.00;;;;;;4910912;29;20179;-49
2022/01/29 18:32:42;;;;;;;41.50;6.93;;;8.20;1.00;;;;;;4903491;29;20458;-52
2022/01/29 18:35:08;;;;;;;28.00;5.73;;;8.20;1.00;;;;;;4910339;29;20447;-51
2022/01/29 18:37:34;;;;;;;43.60;7.03;;;8.20;1.00;;;;;;4911983;29;20441;-52
2022/01/29 18:40:09;;;;;;;44.23;6.67;;;8.20;1.00;;;;;;4913728;29;20533;-51
2022/01/29 18:42:35;;;;;;;47.83;7.73;;;8.10;1.00;;;;;;4910590;29;20190;-52
2022/01/29 18:45:07;;;;;;;45.23;6.70;;;8.00;1.00;;;;;;4913671;29;21022;-52
2022/01/29 18:47:33;;;;;;;38.57;6.63;;;8.00;1.00;;;;;;4912846;29;20474;-52
2022/01/29 18:49:59;;;;;;;42.47;8.00;;;8.00;1.00;;;;;;4904828;29;20440;-51
2022/01/29 18:52:24;;;;;;;34.27;6.20;;;7.90;1.00;;;;;;4913837;29;20179;-52
2022/01/29 18:54:50;;;;;;;32.20;7.57;;;7.90;1.00;;;;;;4913267;29;20470;-51
2022/01/29 18:57:15;;;;;;;43.03;7.43;;;7.90;1.00;;;;;;4913358;29;20242;-53
2022/01/29 18:59:41;;;;;;;39.40;8.90;;;7.80;1.00;;;;;;4913272;29;20724;-51
2022/01/29 19:02:07;;;;;;;43.30;7.57;;;7.80;1.00;;;;;;4913353;29;20274;-52
2022/01/29 19:04:33;;;;;;;50.00;9.13;;;7.80;1.00;;;;;;4912848;29;20851;-52
2022/01/29 19:06:59;;;;;;;51.27;8.20;;;7.80;1.00;;;;;;4911925;29;20435;-51
2022/01/29 19:09:25;;;;;;;37.57;6.50;;;7.80;1.00;;;;;;4913425;29;20179;-51
2022/01/29 19:11:50;;;;;;;39.40;6.80;;;7.70;1.00;;;;;;4913584;29;20443;-52
2022/01/29 19:14:16;;;;;;;44.17;8.30;;;7.70;1.00;;;;;;4913220;29;20179;-52
2022/01/29 19:16:45;;;;;;;50.63;7.60;;;7.80;1.00;;;;;;4913514;29;20511;-52
2022/01/29 19:19:14;;;;;;;35.93;6.60;;;7.80;1.00;;;;;;4913422;29;20213;-52
2022/01/29 19:21:40;;;;;;;45.47;6.37;;;7.80;1.00;;;;;;4912985;29;20939;-52
2022/01/29 19:24:06;;;;;;;46.70;8.40;;;7.70;1.00;;;;;;4913794;29;20431;-51
2022/01/29 19:26:32;;;;;;;56.80;7.67;;;7.60;1.00;;;;;;4913579;29;20230;-52
2022/01/29 19:28:58;;;;;;;47.07;6.63;;;7.60;1.00;;;;;;4913399;29;20972;-52
2022/01/29 19:31:27;;;;;;;44.47;7.63;;;7.60;1.00;;;;;;4913651;29;20214;-51
2022/01/29 19:33:54;;;;;;;33.90;7.53;;;7.50;1.00;;;;;;4912855;29;20548;-52
2022/01/29 19:36:19;;;;;;;43.27;7.30;;;7.50;1.00;;;;;;4913724;29;20518;-52
2022/01/29 19:38:45;;;;;;;33.87;5.60;;;7.50;1.00;;;;;;4913434;29;20593;-53
2022/01/29 19:41:11;;;;;;;41.07;5.40;;;7.50;1.00;;;;;;4913559;29;20266;-52
2022/01/29 19:43:39;;;;;;;22.80;3.93;;;7.40;1.00;;;;;;4913728;29;20183;-52
2022/01/29 19:46:05;;;;;;;33.17;6.03;;;7.30;1.00;;;;;;4912357;29;20180;-53
2022/01/29 19:48:34;;;;;;;28.83;4.60;;;7.20;1.00;;;;;;4913424;29;20462;-52
2022/01/29 19:51:00;;;;;;;17.57;4.43;;;7.10;1.00;;;;;;4913484;29;20501;-53
2022/01/29 19:53:26;;;;;;;25.50;4.50;;;7.00;1.00;;;;;;4912704;29;21062;-53
2022/01/29 19:55:52;;;;;;;29.87;5.47;;;6.90;1.00;;;;;;4915185;29;20239;-52
2022/01/29 19:58:17;;;;;;;37.50;6.30;;;6.90;1.00;;;;;;4916723;29;20453;-52
2022/01/29 20:00:43;;;;;;;34.57;6.73;;;6.90;1.00;;;;;;4916707;29;20187;-53
2022/01/29 20:03:09;;;;;;;39.63;6.77;;;6.90;1.00;;;;;;4916196;29;21098;-52
2022/01/29 20:05:35;;;;;;;45.00;5.87;;;6.90;1.00;;;;;;4916837;29;20191;-53
2022/01/29 20:08:02;;;;;;;42.13;6.00;;;6.90;1.00;;;;;;4916601;29;20297;-52
2022/01/29 20:10:29;;;;;;;59.67;6.97;;;6.90;1.00;;;;;;4916836;29;20907;-52
2022/01/29 20:12:55;;;;;;;47.47;6.40;;;6.80;1.00;;;;;;4916943;29;20749;-53
2022/01/29 20:15:21;;;;;;;40.37;6.97;;;6.80;1.00;;;;;;4916697;29;20431;-52
2022/01/29 20:17:46;;;;;;;37.23;5.80;;;6.80;1.00;;;;;;4916358;29;20258;-52
2022/01/29 20:20:14;;;;;;;47.20;6.93;;;6.80;1.00;;;;;;4915388;29;20703;-52
2022/01/29 20:22:40;;;;;;;46.60;6.87;;;6.80;1.00;;;;;;4913943;29;20229;-53
2022/01/29 20:25:09;;;;;;;34.50;5.20;;;6.90;1.00;;;;;;4914742;29;20661;-52
2022/01/29 20:27:36;;;;;;;33.57;6.30;;;6.90;1.00;;;;;;4916394;29;20525;-52
2022/01/29 20:30:02;;;;;;;40.40;7.20;;;6.90;1.00;;;;;;4916644;29;20780;-53
2022/01/29 20:32:27;;;;;;;39.60;7.57;;;7.00;1.00;;;;;;4916344;29;20423;-54
2022/01/29 20:34:53;;;;;;;43.90;6.37;;;7.00;1.00;;;;;;4916169;29;20191;-52
2022/01/29 20:37:18;;;;;;;32.53;6.53;;;7.10;1.00;;;;;;4915927;29;20203;-52
2022/01/29 20:39:44;;;;;;;37.43;5.90;;;7.10;1.00;;;;;;4909333;29;20211;-53
2022/01/29 20:42:10;;;;;;;40.93;6.40;;;7.10;1.00;;;;;;4915709;29;20580;-53
2022/01/29 20:44:35;;;;;;;42.60;6.70;;;7.00;1.00;;;;;;4915201;29;20203;-52
2022/01/29 20:47:02;;;;;;;45.13;6.73;;;7.00;1.00;;;;;;4915324;29;20880;-52
2022/01/29 20:49:27;;;;;;;46.47;7.20;;;7.00;1.00;;;;;;4914873;29;20261;-52
2022/01/29 20:51:53;;;;;;;36.57;5.23;;;7.00;1.00;;;;;;4915984;29;20854;-52
2022/01/29 20:54:18;;;;;;;38.67;7.17;;;7.00;1.00;;;;;;4915916;29;20205;-53
2022/01/29 20:56:44;;;;;;;34.83;6.80;;;7.00;1.00;;;;;;4914957;29;20251;-53
2022/01/29 20:59:10;;;;;;;40.43;8.00;;;7.00;1.00;;;;;;4911720;29;20191;-53
2022/01/29 21:01:35;;;;;;;48.30;6.50;;;7.00;1.00;;;;;;4916068;29;20191;-52
2022/01/29 21:04:03;;;;;;;36.40;6.47;;;7.00;1.00;;;;;;4914246;29;20198;-53
2022/01/29 21:06:30;;;;;;;43.13;6.73;;;7.00;1.00;;;;;;4910643;29;20195;-52
2022/01/29 21:08:57;;;;;;;36.60;6.13;;;7.00;1.00;;;;;;4914937;29;20521;-53
2022/01/29 21:11:23;;;;;;;48.73;6.17;;;7.00;1.00;;;;;;4915305;29;20428;-53
2022/01/29 21:13:48;;;;;;;42.93;6.40;;;7.00;1.00;;;;;;4913544;29;20502;-52
2022/01/29 21:16:14;;;;;;;36.20;5.93;;;6.90;1.00;;;;;;4915164;29;20455;-52
2022/01/29 21:18:40;;;;;;;19.87;4.27;;;6.90;1.00;;;;;;4908902;29;20201;-52
2022/01/29 21:21:05;;;;;;;27.33;5.17;;;7.00;1.00;;;;;;4914924;29;20879;-54
2022/01/29 21:23:31;;;;;;;34.97;6.13;;;6.90;1.00;;;;;;4915490;29;20270;-53
2022/01/29 21:25:57;;;;;;;33.13;5.33;;;6.80;1.00;;;;;;4914986;29;20278;-52
2022/01/29 21:28:22;;;;;;;33.70;6.10;;;6.80;1.00;;;;;;4915145;29;20961;-52
2022/01/29 21:30:48;;;;;;;21.10;3.50;;;6.70;1.00;;;;;;4915592;29;20874;-52
2022/01/29 21:33:14;;;;;;;23.90;2.90;;;6.50;1.00;;;;;;4915220;29;20172;-52
2022/01/29 21:35:41;;;;;;;24.37;3.80;;;6.50;1.00;;;;;;4910253;29;20710;-53
2022/01/29 21:38:10;;;;;;;35.27;5.57;;;6.40;1.00;;;;;;4912709;29;20187;-52
2022/01/29 21:40:36;;;;;;;36.10;4.90;;;6.30;1.00;;;;;;4914401;29;20435;-52
2022/01/29 21:43:02;;;;;;;31.97;6.13;;;6.30;1.00;;;;;;4914415;29;20435;-52
2022/01/29 21:45:30;;;;;;;45.60;6.43;;;6.30;1.00;;;;;;4914321;29;20427;-52
2022/01/29 21:47:55;;;;;;;52.03;6.80;;;6.50;1.00;;;;;;4914761;29;20211;-53
2022/01/29 21:50:21;;;;;;;43.80;6.10;;;6.60;1.00;;;;;;4914603;29;20981;-51
2022/01/29 21:52:46;;;;;;;40.60;7.07;;;6.60;1.00;;;;;;4913318;29;20282;-52
2022/01/29 21:55:12;;;;;;;33.07;6.00;;;6.70;1.00;;;;;;4914941;29;20183;-52
2022/01/29 21:57:38;;;;;;;45.73;6.40;;;6.70;1.00;;;;;;4914801;29;20266;-52
2022/01/29 22:00:04;;;;;;;33.63;6.43;;;6.70;1.00;;;;;;4914581;29;20673;-52
2022/01/29 22:02:30;;;;;;;42.40;5.70;;;6.80;1.00;;;;;;4911624;29;20319;-53
2022/01/29 22:04:56;;;;;;;35.90;7.37;;;6.80;1.00;;;;;;4895503;29;20974;-52
2022/01/29 22:07:23;;;;;;;42.33;5.90;;;6.90;1.00;;;;;;4896138;29;20204;-53
2022/01/29 22:09:49;;;;;;;31.47;5.70;;;6.90;1.00;;;;;;4896030;29;20221;-52
2022/01/29 22:12:16;;;;;;;25.63;5.63;;;6.60;1.00;;;;;;4896187;29;20452;-52
2022/01/29 22:14:44;;;;;;;31.27;6.70;;;6.50;1.00;;;;;;4911467;29;20509;-52
2022/01/29 22:17:10;;;;;;;40.77;5.93;;;6.40;1.00;;;;;;4913502;29;20438;-52
2022/01/29 22:19:35;;;;;;;22.03;5.07;;;6.30;1.00;;;;;;4914294;29;21254;-52
2022/01/29 22:22:01;;;;;;;42.27;6.57;;;6.30;1.00;;;;;;4912885;29;20459;-52
2022/01/29 22:24:27;;;;;;;26.80;4.43;;;6.40;1.00;;;;;;4913249;29;20745;-51
2022/01/29 22:26:53;;;;;;;35.27;6.53;;;6.40;1.00;;;;;;4912353;29;20234;-52
2022/01/29 22:29:18;;;;;;;31.40;6.00;;;6.40;1.00;;;;;;4912338;29;20265;-51
2022/01/29 22:31:44;;;;;;;39.43;5.90;;;6.40;1.00;;;;;;4912310;29;20179;-52
2022/01/29 22:34:10;;;;;;;34.83;5.93;;;6.40;1.00;;;;;;4912758;29;20175;-52
2022/01/29 22:36:35;;;;;;;47.50;6.60;;;6.40;1.00;;;;;;4908019;29;20188;-52
2022/01/29 22:39:08;;;;;;;36.97;6.17;;;6.40;1.00;;;;;;4912838;29;20199;-51
2022/01/29 22:41:34;;;;;;;39.07;5.93;;;6.40;1.00;;;;;;4905427;29;20223;-52
2022/01/29 22:44:00;;;;;;;42.07;5.37;;;6.50;1.00;;;;;;4911429;29;20459;-52
2022/01/29 22:46:25;;;;;;;42.73;6.63;;;6.60;1.00;;;;;;4909228;29;20321;-52
2022/01/29 22:48:50;;;;;;;31.40;4.93;;;6.60;1.00;;;;;;4909250;29;20227;-52
2022/01/29 22:51:16;;;;;;;29.67;5.90;;;6.60;1.00;;;;;;4909644;29;20195;-52
2022/01/29 22:53:43;;;;;;;40.43;5.90;;;6.70;1.00;;;;;;4913417;29;20205;-53
2022/01/29 22:56:08;;;;;;;30.90;6.67;;;6.70;1.00;;;;;;4911589;29;20231;-52
2022/01/29 22:58:34;;;;;;;26.37;4.57;;;6.70;1.00;;;;;;4907830;29;20987;-52
2022/01/29 23:00:59;;;;;;;34.03;5.77;;;6.70;1.00;;;;;;4910988;29;20191;-51
2022/01/29 23:03:25;;;;;;;40.93;5.70;;;6.60;1.00;;;;;;4913876;29;20215;-51
2022/01/29 23:05:50;;;;;;;25.83;5.40;;;6.60;1.00;;;;;;4912274;29;20239;-52
2022/01/29 23:08:18;;;;;;;37.97;4.90;;;6.60;1.00;;;;;;4915442;29;20676;-52
2022/01/29 23:10:51;;;;;;;36.97;5.27;;;6.70;1.00;;;;;;4913816;29;20225;-49
2022/01/29 23:13:24;;;;;;;32.30;6.40;;;6.70;1.00;;;;;;4913560;29;20510;-49
2022/01/29 23:16:04;;;;;;;33.23;6.20;;;6.70;1.00;;;;;;4913234;29;20455;-49
2022/01/29 23:18:30;;;;;;;42.53;5.77;;;6.70;1.00;;;;;;4909411;29;20838;-49
2022/01/29 23:21:39;;;;;;;40.20;5.83;;;6.80;1.00;;;;;;4903825;29;20473;-49
2022/01/29 23:24:01;;;;;;;44.20;7.00;;;6.80;1.00;;;;;;4913924;29;20206;-49
2022/01/29 23:26:38;;;;;;;40.90;5.67;;;6.80;1.00;;;;;;4914110;29;20493;-49
2022/01/29 23:29:07;;;;;;;37.37;6.23;;;6.80;1.00;;;;;;4914988;29;20517;-49
2022/01/29 23:31:37;;;;;;;31.97;5.43;;;6.80;1.00;;;;;;4917510;29;20425;-49
2022/01/29 23:36:35;;;;;;;33.97;5.87;;;6.80;1.00;;;;;;4917553;29;20407;-49
2022/01/29 23:39:03;;;;;;;42.43;7.27;;;6.80;1.00;;;;;;4910026;29;20454;-49
2022/01/29 23:45:05;;;;;;;53.80;6.97;;;6.80;1.00;;;;;;4917210;29;20419;-49
2022/01/29 23:49:49;;;;;;;42.03;7.53;;;6.80;1.00;;;;;;4906219;29;20435;-49
2022/01/29 23:52:15;;;;;;;34.93;5.90;;;6.80;1.00;;;;;;4917084;29;20474;-49
2022/01/29 23:54:40;;;;;;;42.97;7.00;;;6.80;1.00;;;;;;4917114;29;20191;-49
2022/01/29 23:57:06;;;;;;;43.57;9.10;;;6.80;1.00;;;;;;4909820;29;20604;-49
2022/01/29 23:59:32;;;;;;;40.97;6.73;;;6.80;1.00;;;;;;4916706;29;20575;-49
